createdAt,value
2023-04-29T00:03:30.518Z,1.91
2023-04-29T00:07:48.352Z,1.90
2023-04-29T00:12:06.487Z,1.92
2023-04-29T00:16:23.965Z,1.95
2023-04-29T00:20:42.667Z,2.02
2023-04-29T00:24:59.672Z,2.12
2023-04-29T00:29:17.575Z,2.20
2023-04-29T00:33:35.133Z,2.39
2023-04-29T00:37:52.875Z,2.73
2023-04-29T00:42:10.882Z,3.16
2023-04-29T00:46:28.594Z,3.49
2023-04-29T00:50:46.218Z,3.89
2023-04-29T00:55:07.506Z,4.27
2023-04-29T00:59:32.254Z,4.49
2023-04-29T01:03:51.299Z,4.64
2023-04-29T01:08:42.177Z,4.83
2023-04-29T01:13:10.290Z,4.96
2023-04-29T01:17:30.259Z,5.11
2023-04-29T01:21:51.984Z,5.20
2023-04-29T01:26:10.292Z,5.32
2023-04-29T01:30:39.990Z,5.46
2023-04-29T01:35:17.173Z,5.54
2023-04-29T01:39:49.319Z,5.60
2023-04-29T01:44:13.201Z,5.64
2023-04-29T01:48:34.043Z,5.73
2023-04-29T01:52:51.687Z,5.77
2023-04-29T01:57:09.439Z,5.84
2023-04-29T02:01:27.184Z,5.92
2023-04-29T02:05:44.687Z,5.95
2023-04-29T02:10:02.530Z,6.01
2023-04-29T02:14:20.040Z,6.08
2023-04-29T02:18:38.114Z,6.10
2023-04-29T02:22:55.631Z,6.12
2023-04-29T02:27:13.338Z,6.15
2023-04-29T02:31:30.980Z,6.16
2023-04-29T02:35:48.741Z,6.12
2023-04-29T02:40:07.495Z,6.10
2023-04-29T02:44:25.329Z,6.13
2023-04-29T02:48:42.906Z,6.09
2023-04-29T02:53:00.691Z,6.10
2023-04-29T02:57:18.690Z,6.12
2023-04-29T03:01:36.374Z,6.08
2023-04-29T03:05:54.022Z,6.10
2023-04-29T03:10:12.799Z,6.15
2023-04-29T03:14:30.390Z,6.20
2023-04-29T03:18:48.271Z,6.20
2023-04-29T03:23:06.067Z,6.23
2023-04-29T03:27:24.155Z,6.20
2023-04-29T03:31:42.040Z,6.13
2023-04-29T03:35:59.788Z,6.18
2023-04-29T03:40:17.572Z,6.27
2023-04-29T03:44:35.150Z,6.40
2023-04-29T03:48:52.983Z,6.57
2023-04-29T03:53:10.635Z,6.68
2023-04-29T03:57:28.351Z,6.73
2023-04-29T04:01:46.041Z,6.71
2023-04-29T04:06:03.671Z,6.78
2023-04-29T04:10:21.798Z,6.92
2023-04-29T04:14:39.474Z,7.06
2023-04-29T04:18:57.126Z,7.24
2023-04-29T04:23:14.935Z,7.53
2023-04-29T04:27:32.802Z,7.74
2023-04-29T04:31:50.416Z,7.89
2023-04-29T04:36:08.681Z,8.18
2023-04-29T04:40:26.214Z,8.26
2023-04-29T04:44:43.969Z,8.30
2023-04-29T04:49:01.538Z,8.47
2023-04-29T04:53:19.272Z,8.54
2023-04-29T04:57:36.775Z,8.83
2023-04-29T05:01:54.519Z,9.20
2023-04-29T05:06:12.111Z,9.40
2023-04-29T05:10:30.029Z,9.57
2023-04-29T05:14:47.563Z,9.77
2023-04-29T05:19:05.371Z,9.92
2023-04-29T05:23:23.395Z,10.20
2023-04-29T05:27:41.089Z,10.37
2023-04-29T05:31:59.465Z,10.51
2023-04-29T05:36:17.121Z,10.70
2023-04-29T05:40:34.712Z,10.84
2023-04-29T05:44:52.425Z,10.87
2023-04-29T05:49:09.935Z,10.88
2023-04-29T05:53:27.764Z,10.95
2023-04-29T05:57:45.297Z,11.13
2023-04-29T06:02:03.439Z,11.32
2023-04-29T06:06:21.004Z,11.60
2023-04-29T06:10:39.064Z,11.92
2023-04-29T06:14:56.749Z,11.99
2023-04-29T06:19:14.715Z,12.15
2023-04-29T06:23:33.028Z,11.99
2023-04-29T06:27:50.851Z,11.95
2023-04-29T06:32:08.984Z,11.79
2023-04-29T06:36:29.029Z,11.92
2023-04-29T06:40:46.687Z,12.26
2023-04-29T06:45:05.180Z,12.91
2023-04-29T06:49:22.915Z,13.43
2023-04-29T06:53:40.663Z,13.09
2023-04-29T06:57:58.218Z,13.04
2023-04-29T07:02:16.374Z,13.61
2023-04-29T07:06:33.882Z,13.60
2023-04-29T07:10:58.947Z,13.44
2023-04-29T07:15:16.612Z,12.94
2023-04-29T07:19:34.256Z,12.95
2023-04-29T07:23:51.865Z,12.75
2023-04-29T07:28:09.790Z,12.63
2023-04-29T07:32:28.017Z,12.50
2023-04-29T07:36:45.693Z,12.43
2023-04-29T07:41:04.769Z,12.75
2023-04-29T07:45:22.437Z,12.37
2023-04-29T07:49:40.071Z,12.52
2023-04-29T07:54:01.021Z,12.35
2023-04-29T07:58:18.558Z,12.33
2023-04-29T08:02:36.741Z,12.28
2023-04-29T08:06:54.526Z,12.15
2023-04-29T08:11:20.180Z,12.12
2023-04-29T08:15:37.742Z,11.94
2023-04-29T08:19:55.504Z,11.91
2023-04-29T08:24:12.603Z,11.92
2023-04-29T08:28:31.447Z,11.87
2023-04-29T08:32:49.387Z,11.87
2023-04-29T08:37:07.005Z,11.73
2023-04-29T08:41:25.621Z,11.85
2023-04-29T08:45:44.391Z,11.94
2023-04-29T08:50:04.849Z,12.11
2023-04-29T08:54:22.582Z,12.04
2023-04-29T08:58:42.558Z,12.33
2023-04-29T09:03:04.545Z,13.16
2023-04-29T09:07:23.900Z,13.42
2023-04-29T09:11:42.962Z,13.43
2023-04-29T09:16:00.574Z,14.36
2023-04-29T09:20:21.263Z,15.32
2023-04-29T09:24:40.156Z,15.31
2023-04-29T09:29:14.327Z,14.87
2023-04-29T09:33:32.653Z,14.19
2023-04-29T09:37:50.406Z,13.88
2023-04-29T09:42:09.903Z,13.88
2023-04-29T09:46:27.910Z,13.51
2023-04-29T09:51:04.241Z,14.08
2023-04-29T09:55:22.182Z,14.85
2023-04-29T09:59:41.821Z,15.53
2023-04-29T10:04:00.248Z,17.15
2023-04-29T10:08:18.278Z,18.87
2023-04-29T10:12:36.702Z,21.08
2023-04-29T10:17:06.309Z,20.65
2023-04-29T10:21:30.325Z,19.61
2023-04-29T10:25:49.259Z,19.67
2023-04-29T10:30:09.943Z,19.97
2023-04-29T10:34:28.854Z,20.08
2023-04-29T10:38:54.352Z,21.62
2023-04-29T10:43:12.086Z,21.54
2023-04-29T10:47:29.311Z,19.86
2023-04-29T10:51:46.932Z,19.20
2023-04-29T10:56:13.425Z,18.81
2023-04-29T11:00:34.057Z,18.44
2023-04-29T11:05:11.527Z,17.84
2023-04-29T11:09:33.386Z,18.73
2023-04-29T11:13:51.129Z,18.00
2023-04-29T11:18:11.999Z,17.69
2023-04-29T11:22:34.061Z,16.74
2023-04-29T11:26:52.897Z,16.32
2023-04-29T11:31:10.518Z,15.87
2023-04-29T11:35:28.371Z,15.69
2023-04-29T11:39:45.973Z,15.80
2023-04-29T11:44:05.264Z,15.76
2023-04-29T11:48:27.085Z,15.69
2023-04-29T11:52:47.859Z,15.45
2023-04-29T11:57:05.590Z,14.95
2023-04-29T12:01:23.482Z,14.69
2023-04-29T12:05:46.607Z,14.79
2023-04-29T12:10:11.270Z,14.77
2023-04-29T12:14:29.696Z,14.94
2023-04-29T12:18:47.368Z,15.52
2023-04-29T12:23:17.042Z,15.32
2023-04-29T12:27:36.445Z,15.32
2023-04-29T12:31:54.772Z,14.98
2023-04-29T12:36:20.929Z,15.00
2023-04-29T12:40:38.634Z,15.07
2023-04-29T12:44:56.437Z,15.25
2023-04-29T12:49:14.984Z,15.39
2023-04-29T12:53:33.374Z,15.57
2023-04-29T12:57:51.787Z,15.53
2023-04-29T13:02:09.473Z,15.35
2023-04-29T13:06:27.467Z,15.05
2023-04-29T13:10:45.050Z,14.35
2023-04-29T13:15:02.962Z,14.16
2023-04-29T13:19:38.200Z,14.24
2023-04-29T13:23:58.734Z,14.66
2023-04-29T13:28:16.684Z,14.66
2023-04-29T13:32:43.803Z,14.83
2023-04-29T13:37:06.877Z,15.40
2023-04-29T13:41:25.999Z,15.80
2023-04-29T13:45:45.560Z,16.20
2023-04-29T13:54:57.140Z,17.38
2023-04-29T13:59:37.991Z,17.45
2023-04-29T14:03:42.593Z,17.90
2023-04-29T14:08:00.670Z,18.02
2023-04-29T14:12:19.887Z,17.57
2023-04-29T14:16:37.635Z,17.17
2023-04-29T14:20:55.431Z,17.19
2023-04-29T14:25:12.993Z,16.63
2023-04-29T14:29:30.817Z,16.20
2023-04-29T14:33:50.701Z,15.81
2023-04-29T14:38:08.992Z,15.57
2023-04-29T14:42:26.624Z,15.47
2023-04-29T14:46:44.214Z,15.23
2023-04-29T14:51:02.281Z,15.01
2023-04-29T14:55:19.682Z,14.88
2023-04-29T14:59:37.489Z,14.77
2023-04-29T15:03:55.134Z,14.57
2023-04-29T15:08:13.426Z,14.30
2023-04-29T15:12:30.985Z,13.76
2023-04-29T15:16:49.410Z,12.61
2023-04-29T15:21:07.827Z,11.92
2023-04-29T15:25:27.452Z,11.99
2023-04-29T15:29:45.262Z,12.44
2023-04-29T15:34:03.171Z,12.57
2023-04-29T15:38:21.039Z,12.78
2023-04-29T15:42:38.688Z,13.61
2023-04-29T15:46:56.221Z,13.73
2023-04-29T15:51:15.390Z,13.70
2023-04-29T15:55:35.293Z,14.14
2023-04-29T15:59:53.535Z,14.50
2023-04-29T16:04:11.536Z,14.21
2023-04-29T16:08:29.330Z,13.76
2023-04-29T16:12:46.917Z,13.25
2023-04-29T16:17:06.087Z,12.71
2023-04-29T16:21:24.126Z,12.40
2023-04-29T16:25:42.299Z,12.14
2023-04-29T16:30:00.571Z,11.94
2023-04-29T16:34:18.457Z,11.85
2023-04-29T16:38:36.305Z,11.95
2023-04-29T16:42:54.525Z,11.89
2023-04-29T16:47:12.385Z,11.85
2023-04-29T16:51:29.949Z,11.82
2023-04-29T16:55:48.334Z,11.85
2023-04-29T17:00:10.561Z,11.73
2023-04-29T17:04:29.467Z,11.68
2023-04-29T17:08:50.024Z,11.68
2023-04-29T17:13:09.063Z,11.60
2023-04-29T17:17:27.173Z,11.47
2023-04-29T17:21:44.792Z,11.33
2023-04-29T17:26:02.671Z,11.29
2023-04-29T17:30:20.381Z,11.29
2023-04-29T17:34:38.435Z,11.27
2023-04-29T17:38:55.971Z,11.19
2023-04-29T17:43:13.649Z,11.02
2023-04-29T17:47:31.181Z,10.95
2023-04-29T17:51:49.310Z,10.84
2023-04-29T17:56:06.503Z,10.75
2023-04-29T18:00:24.349Z,10.88
2023-04-29T18:04:42.162Z,10.96
2023-04-29T18:09:01.924Z,11.05
2023-04-29T18:13:19.607Z,11.03
2023-04-29T18:17:37.331Z,10.98
2023-04-29T18:21:59.595Z,10.96
2023-04-29T18:26:18.173Z,10.96
2023-04-29T18:30:36.093Z,10.95
2023-04-29T18:34:53.617Z,10.89
2023-04-29T18:39:11.125Z,10.85
2023-04-29T18:43:28.751Z,10.81
2023-04-29T18:47:46.520Z,10.81
2023-04-29T18:52:04.975Z,10.78
2023-04-29T18:56:22.780Z,10.80
2023-04-29T19:00:41.023Z,10.80
2023-04-29T19:04:58.802Z,10.80
2023-04-29T19:09:16.628Z,10.83
2023-04-29T19:13:34.276Z,10.83
2023-04-29T19:17:52.191Z,10.84
2023-04-29T19:22:10.018Z,10.78
2023-04-29T19:26:27.973Z,10.77
2023-04-29T19:30:45.650Z,10.80
2023-04-29T19:35:04.428Z,10.84
2023-04-29T19:39:22.165Z,10.84
2023-04-29T19:43:39.978Z,10.85
2023-04-29T19:47:59.733Z,10.84
2023-04-29T19:52:18.163Z,10.81
2023-04-29T19:56:35.331Z,10.78
2023-04-29T20:00:53.368Z,10.80
2023-04-29T20:05:11.786Z,10.84
2023-04-29T20:09:29.501Z,10.87
2023-04-29T20:13:47.969Z,10.85
2023-04-29T20:18:05.843Z,10.81
2023-04-29T20:22:23.861Z,10.70
2023-04-29T20:26:41.428Z,10.73
2023-04-29T20:30:58.637Z,10.73
2023-04-29T20:35:16.697Z,10.74
2023-04-29T20:39:34.384Z,10.68
2023-04-29T20:43:53.169Z,10.65
2023-04-29T20:48:10.786Z,10.63
2023-04-29T20:52:28.758Z,10.50
2023-04-29T20:56:46.266Z,10.43
2023-04-29T21:01:03.982Z,10.40
2023-04-29T21:05:21.545Z,10.33
2023-04-29T21:09:39.587Z,10.34
2023-04-29T21:13:57.155Z,10.33
2023-04-29T21:18:15.384Z,10.29
2023-04-29T21:22:32.951Z,10.26
2023-04-29T21:26:50.811Z,10.25
2023-04-29T21:31:09.864Z,10.25
2023-04-29T21:35:27.945Z,10.27
2023-04-29T21:39:45.456Z,10.30
2023-04-29T21:44:04.115Z,10.30
2023-04-29T21:48:22.385Z,10.25
2023-04-29T21:52:39.935Z,10.19
2023-04-29T21:56:58.126Z,10.19
2023-04-29T22:01:29.893Z,10.22
2023-04-29T22:05:47.410Z,10.25
2023-04-29T22:10:06.618Z,10.30
2023-04-29T22:14:24.342Z,10.27
2023-04-29T22:18:42.139Z,10.33
2023-04-29T22:22:59.886Z,10.37
2023-04-29T22:27:17.534Z,10.40
2023-04-29T22:31:35.142Z,10.40
2023-04-29T22:35:52.946Z,10.37
2023-04-29T22:40:12.094Z,10.44
2023-04-29T22:44:30.145Z,10.44
2023-04-29T22:48:47.651Z,10.44
2023-04-29T22:53:05.326Z,10.47
2023-04-29T22:57:22.894Z,10.51
2023-04-29T23:01:40.603Z,10.47
2023-04-29T23:05:59.803Z,10.51
2023-04-29T23:10:17.366Z,10.47
2023-04-29T23:14:36.019Z,10.46
2023-04-29T23:18:53.928Z,10.46
2023-04-29T23:23:11.617Z,10.50
2023-04-29T23:27:29.155Z,10.48
2023-04-29T23:31:47.059Z,10.48
2023-04-29T23:36:05.074Z,10.47
2023-04-29T23:40:22.892Z,10.46
2023-04-29T23:44:40.498Z,10.47
2023-04-29T23:48:58.238Z,10.50
2023-04-29T23:53:16.024Z,10.50
2023-04-29T23:57:33.735Z,10.51
